Time;durP1;ratioP1;P1;durP2;ratioP2;P2;SDS_P1;SDS_P2;PMS_P1;PMS_P2;Temp;Humidity;BMP_temperature;BMP_pressure;BME280_temperature;BME280_humidity;BME280_pressure;Samples;Min_cycle;Max_cycle;Signal;HPM_P1;HPM_P2
2023/08/19 00:03:51;;;;;;;11.48;7.18;;;15.80;99.90;;;;;;8206338;28;20549;-81
2023/08/19 00:07:52;;;;;;;11.10;7.30;;;15.80;99.90;;;;;;8278471;28;20487;-81
2023/08/19 00:11:52;;;;;;;11.82;6.68;;;15.90;99.90;;;;;;8276829;28;20488;-81
2023/08/19 00:15:53;;;;;;;6.72;5.97;;;16.10;99.90;;;;;;8205741;28;20078;-81
2023/08/19 00:19:53;;;;;;;8.50;6.22;;;15.80;99.90;;;;;;8214452;28;20102;-82
2023/08/19 00:23:56;;;;;;;9.43;6.82;;;15.60;99.90;;;;;;8210203;28;20023;-81
2023/08/19 00:27:57;;;;;;;10.60;6.78;;;15.50;99.90;;;;;;8283653;28;20549;-80
2023/08/19 00:31:57;;;;;;;11.93;7.25;;;15.60;99.90;;;;;;8214422;28;20114;-81
2023/08/19 00:35:58;;;;;;;12.05;6.85;;;15.60;99.90;;;;;;8220839;28;20376;-81
2023/08/19 00:39:58;;;;;;;9.40;6.68;;;15.70;99.90;;;;;;8288792;28;20156;-82
2023/08/19 00:43:59;;;;;;;11.50;6.47;;;15.60;99.90;;;;;;8285460;28;20027;-81
2023/08/19 00:48:00;;;;;;;15.00;7.80;;;15.60;99.90;;;;;;8277747;28;20553;-81
2023/08/19 00:52:01;;;;;;;12.23;7.05;;;15.70;99.90;;;;;;8260844;28;20069;-81
2023/08/19 00:56:02;;;;;;;13.05;7.25;;;15.70;99.90;;;;;;8268355;28;20015;-81
2023/08/19 01:00:04;;;;;;;10.93;6.88;;;15.60;99.90;;;;;;8281663;28;20118;-81
2023/08/19 01:04:05;;;;;;;13.93;7.32;;;15.60;99.90;;;;;;8280457;28;20022;-80
2023/08/19 01:08:11;;;;;;;11.43;7.05;;;15.40;99.90;;;;;;8277799;28;20030;-80
2023/08/19 01:12:24;;;;;;;9.95;6.90;;;15.30;99.90;;;;;;8297692;28;20114;-81
2023/08/19 01:16:26;;;;;;;13.05;8.15;;;15.30;99.90;;;;;;8221304;28;20109;-81
2023/08/19 01:20:31;;;;;;;11.20;8.48;;;15.40;99.90;;;;;;8294004;28;20084;-81
2023/08/19 01:24:36;;;;;;;14.13;7.55;;;15.40;99.90;;;;;;8301215;28;20059;-82
2023/08/19 01:28:37;;;;;;;12.05;7.45;;;15.30;99.90;;;;;;8291857;28;20075;-81
2023/08/19 01:32:38;;;;;;;11.77;8.02;;;15.20;99.90;;;;;;8222906;28;20106;-81
2023/08/19 01:36:44;;;;;;;9.88;7.28;;;15.10;99.90;;;;;;8233181;28;20023;-81
2023/08/19 01:40:45;;;;;;;10.73;7.78;;;15.10;99.90;;;;;;8289892;28;20027;-81
2023/08/19 01:44:46;;;;;;;11.70;7.13;;;15.00;99.90;;;;;;8209812;28;20407;-80
2023/08/19 01:48:46;;;;;;;11.05;6.72;;;14.90;99.90;;;;;;8270134;28;20030;-81
2023/08/19 01:52:47;;;;;;;10.13;7.35;;;14.70;99.90;;;;;;8207074;28;20606;-81
2023/08/19 01:56:48;;;;;;;8.90;7.80;;;14.60;99.90;;;;;;8284394;28;20113;-81
2023/08/19 02:00:48;;;;;;;13.82;8.95;;;14.50;99.90;;;;;;8281151;28;20057;-80
2023/08/19 02:04:49;;;;;;;13.35;8.45;;;14.40;99.90;;;;;;8218851;28;20027;-80
2023/08/19 02:08:49;;;;;;;14.35;8.05;;;14.40;99.90;;;;;;8206492;28;20046;-79
2023/08/19 02:12:50;;;;;;;11.05;6.88;;;14.40;99.90;;;;;;8305411;28;20578;-80
2023/08/19 02:16:50;;;;;;;8.93;7.18;;;14.50;99.90;;;;;;8274925;28;20034;-80
2023/08/19 02:20:51;;;;;;;11.82;7.15;;;14.40;99.90;;;;;;8280557;28;20538;-80
2023/08/19 02:24:52;;;;;;;8.45;7.18;;;14.50;99.90;;;;;;8290861;28;20031;-80
2023/08/19 02:28:52;;;;;;;10.48;8.13;;;14.30;99.90;;;;;;8293299;28;20114;-81
2023/08/19 02:32:53;;;;;;;11.82;7.35;;;14.30;99.90;;;;;;8277180;28;20016;-80
2023/08/19 02:36:53;;;;;;;12.43;7.35;;;14.20;99.90;;;;;;8221230;28;20073;-81
2023/08/19 02:40:54;;;;;;;16.90;9.70;;;14.40;99.90;;;;;;8285755;28;20640;-80
2023/08/19 02:44:54;;;;;;;18.95;10.00;;;14.50;99.90;;;;;;8284158;28;20023;-80
2023/08/19 02:48:55;;;;;;;15.35;9.85;;;14.60;99.90;;;;;;8276914;28;20023;-80
2023/08/19 02:52:55;;;;;;;11.85;7.97;;;14.60;99.90;;;;;;8212664;28;20019;-84
2023/08/19 02:56:56;;;;;;;10.85;7.57;;;14.50;99.90;;;;;;8277120;28;20050;-80
2023/08/19 03:00:56;;;;;;;10.65;7.60;;;14.40;99.90;;;;;;8209484;28;20500;-80
2023/08/19 03:04:57;;;;;;;11.43;8.50;;;14.30;99.90;;;;;;8291602;28;20118;-82
2023/08/19 03:08:57;;;;;;;14.18;8.05;;;14.20;99.90;;;;;;8212741;28;20089;-80
2023/08/19 03:12:59;;;;;;;11.00;7.95;;;14.20;99.90;;;;;;8295697;28;20027;-80
2023/08/19 03:16:59;;;;;;;12.55;8.65;;;14.10;99.90;;;;;;8212066;28;20054;-80
2023/08/19 03:21:00;;;;;;;14.77;10.80;;;14.10;99.90;;;;;;8285345;28;20023;-80
2023/08/19 03:25:01;;;;;;;14.25;9.65;;;14.00;99.90;;;;;;8270968;28;20047;-81
2023/08/19 03:29:01;;;;;;;17.67;9.40;;;14.00;99.90;;;;;;8205939;28;20062;-80
2023/08/19 03:33:02;;;;;;;13.80;8.60;;;13.90;99.90;;;;;;8284448;28;20038;-80
2023/08/19 03:37:02;;;;;;;10.63;8.40;;;13.90;99.90;;;;;;8203099;28;20059;-80
2023/08/19 03:41:03;;;;;;;20.00;10.82;;;13.80;99.90;;;;;;8292834;28;20038;-80
2023/08/19 03:45:04;;;;;;;20.33;9.82;;;13.80;99.90;;;;;;8284050;28;20027;-80
2023/08/19 03:49:05;;;;;;;13.43;8.60;;;13.90;99.90;;;;;;8279046;28;20035;-80
2023/08/19 03:53:05;;;;;;;15.10;8.00;;;13.80;99.90;;;;;;8279956;28;20391;-80
2023/08/19 03:57:06;;;;;;;11.50;8.07;;;13.70;99.90;;;;;;8270342;28;20034;-80
2023/08/19 04:01:07;;;;;;;19.55;9.32;;;13.70;99.90;;;;;;8215704;28;20051;-80
2023/08/19 04:05:09;;;;;;;16.00;8.77;;;13.60;99.90;;;;;;8286509;28;20411;-80
2023/08/19 04:09:10;;;;;;;13.50;8.82;;;13.60;99.90;;;;;;8202904;28;20035;-80
2023/08/19 04:13:10;;;;;;;15.32;8.13;;;13.70;99.90;;;;;;8277297;28;20022;-80
2023/08/19 04:17:11;;;;;;;14.27;9.65;;;13.70;99.90;;;;;;8220548;28;20497;-80
2023/08/19 04:21:11;;;;;;;14.48;9.25;;;13.70;99.90;;;;;;8217481;28;20031;-80
2023/08/19 04:25:12;;;;;;;9.90;8.38;;;13.70;99.90;;;;;;8269953;28;20023;-81
2023/08/19 04:29:12;;;;;;;16.42;9.80;;;13.60;99.90;;;;;;8398693;22;20401;-84
2023/08/19 04:33:14;;;;;;;13.93;9.57;;;13.80;99.90;;;;;;8367222;28;20013;-84
2023/08/19 04:37:14;;;;;;;11.27;8.82;;;14.10;99.90;;;;;;8382838;28;20109;-84
2023/08/19 04:41:16;;;;;;;12.00;8.95;;;14.30;99.90;;;;;;8378814;28;20404;-84
2023/08/19 04:45:16;;;;;;;11.43;8.77;;;14.30;99.90;;;;;;8368983;28;20040;-84
2023/08/19 04:49:17;;;;;;;11.82;8.32;;;14.10;99.90;;;;;;8367819;28;20033;-82
2023/08/19 04:53:17;;;;;;;11.20;8.82;;;14.10;99.90;;;;;;8368096;28;20016;-83
2023/08/19 04:57:18;;;;;;;12.10;9.27;;;14.30;99.90;;;;;;8366377;28;20028;-82
2023/08/19 05:01:20;;;;;;;12.90;8.80;;;14.20;99.90;;;;;;8370275;28;20017;-84
2023/08/19 05:05:20;;;;;;;10.68;8.50;;;14.30;99.90;;;;;;8379457;28;20024;-82
2023/08/19 05:09:21;;;;;;;11.85;8.30;;;14.50;99.90;;;;;;8356333;28;20025;-84
2023/08/19 05:13:21;;;;;;;11.00;8.20;;;14.60;99.90;;;;;;8366716;28;20017;-84
2023/08/19 05:17:22;;;;;;;11.20;8.63;;;14.60;99.90;;;;;;8371687;28;20031;-84
2023/08/19 05:21:22;;;;;;;10.80;7.95;;;14.80;99.90;;;;;;8369283;28;20048;-84
2023/08/19 05:25:23;;;;;;;9.20;7.72;;;14.80;99.90;;;;;;8352267;28;20067;-83
2023/08/19 05:29:24;;;;;;;11.93;7.55;;;15.00;99.90;;;;;;8359734;28;20096;-85
2023/08/19 05:33:24;;;;;;;10.57;7.75;;;15.30;99.90;;;;;;8358600;28;20033;-85
2023/08/19 05:37:25;;;;;;;13.63;7.80;;;15.40;99.90;;;;;;8371834;28;20101;-84
2023/08/19 05:41:26;;;;;;;18.10;8.13;;;15.50;99.90;;;;;;8364956;28;20041;-83
2023/08/19 05:45:26;;;;;;;10.43;7.82;;;15.70;99.90;;;;;;8357686;28;20029;-84
2023/08/19 05:49:27;;;;;;;10.93;7.53;;;15.80;99.90;;;;;;8362862;28;20036;-84
2023/08/19 05:53:28;;;;;;;7.95;6.50;;;15.90;99.90;;;;;;8362340;28;20075;-86
2023/08/19 05:57:28;;;;;;;9.75;6.25;;;16.60;99.90;;;;;;8360084;28;20028;-84
2023/08/19 06:01:29;;;;;;;8.30;5.50;;;17.70;99.90;;;;;;8376927;28;20066;-83
2023/08/19 06:05:29;;;;;;;7.68;5.00;;;18.90;99.90;;;;;;8380393;28;20083;-84
2023/08/19 06:09:30;;;;;;;8.95;5.13;;;19.80;99.90;;;;;;8375128;28;20035;-85
2023/08/19 06:13:31;;;;;;;6.35;4.15;;;21.10;99.90;;;;;;8370027;28;20024;-84
2023/08/19 06:17:32;;;;;;;6.53;4.30;;;22.00;99.90;;;;;;8365047;28;20111;-85
2023/08/19 06:21:32;;;;;;;5.93;4.35;;;22.40;99.90;;;;;;8372334;28;20028;-86
2023/08/19 06:25:33;;;;;;;7.72;4.65;;;22.00;99.90;;;;;;8367978;28;20099;-85
2023/08/19 06:29:34;;;;;;;7.65;4.97;;;21.80;99.90;;;;;;8384321;28;20402;-89
2023/08/19 06:33:35;;;;;;;9.02;4.18;;;22.20;99.90;;;;;;8378415;28;20028;-88
2023/08/19 06:37:41;;;;;;;6.75;4.13;;;23.20;99.90;;;;;;8376222;28;20409;-84
2023/08/19 06:41:50;;;;;;;7.32;4.45;;;24.20;99.90;;;;;;8371161;28;20033;-86
2023/08/19 06:45:55;;;;;;;9.77;4.15;;;24.20;99.90;;;;;;8370952;28;20405;-84
2023/08/19 06:49:56;;;;;;;8.77;4.18;;;24.50;99.90;;;;;;8394256;28;20033;-86
2023/08/19 06:53:56;;;;;;;6.25;4.45;;;25.60;99.90;;;;;;8365759;28;20676;-85
2023/08/19 06:58:03;;;;;;;5.45;3.70;;;25.50;99.90;;;;;;8377093;28;20567;-84
2023/08/19 07:02:05;;;;;;;5.65;3.85;;;25.70;99.90;;;;;;8381475;28;20020;-86
2023/08/19 07:06:07;;;;;;;6.20;3.60;;;26.00;99.90;;;;;;8374083;28;20459;-87
2023/08/19 07:10:08;;;;;;;8.98;4.10;;;26.90;99.90;;;;;;8374893;28;20025;-85
2023/08/19 07:14:09;;;;;;;8.65;4.03;;;26.90;99.90;;;;;;8387866;28;20025;-84
2023/08/19 07:18:15;;;;;;;8.75;3.90;;;27.30;99.90;;;;;;8381879;28;20078;-88
2023/08/19 07:22:17;;;;;;;6.45;4.00;;;28.00;99.90;;;;;;8389708;28;20488;-83
2023/08/19 07:26:19;;;;;;;6.35;4.30;;;27.70;99.90;;;;;;8386858;28;20024;-84
2023/08/19 07:30:20;;;;;;;7.40;3.40;;;28.30;99.90;;;;;;8359637;28;20078;-84
2023/08/19 07:34:20;;;;;;;5.88;3.65;;;28.30;99.90;;;;;;8365456;28;20393;-84
2023/08/19 07:38:21;;;;;;;9.07;3.85;;;28.30;99.90;;;;;;8364074;28;20485;-83
2023/08/19 07:42:22;;;;;;;8.70;3.30;;;28.40;99.90;;;;;;8372968;28;20036;-84
2023/08/19 07:46:22;;;;;;;7.70;3.92;;;29.00;99.90;;;;;;8359294;28;20527;-85
2023/08/19 07:50:23;;;;;;;9.65;3.72;;;28.90;99.90;;;;;;8363606;28;20037;-82
2023/08/19 07:54:24;;;;;;;7.03;3.83;;;28.60;99.90;;;;;;8367925;28;20078;-84
2023/08/19 07:58:24;;;;;;;7.93;3.97;;;28.90;99.90;;;;;;8364399;28;20067;-83
2023/08/19 08:02:25;;;;;;;5.90;3.00;;;29.10;99.90;;;;;;8380016;28;20506;-83
2023/08/19 08:06:25;;;;;;;7.47;3.60;;;29.90;99.90;;;;;;8380186;28;20037;-83
2023/08/19 08:10:26;;;;;;;6.28;3.45;;;30.00;99.90;;;;;;8369756;28;20036;-87
2023/08/19 08:14:30;;;;;;;8.55;3.80;;;30.20;99.90;;;;;;8381200;28;20032;-86
2023/08/19 08:18:30;;;;;;;10.70;3.78;;;30.30;99.90;;;;;;8364663;28;20062;-86
2023/08/19 08:22:32;;;;;;;7.13;3.50;;;30.90;99.90;;;;;;8383976;28;20064;-87
2023/08/19 08:26:33;;;;;;;7.93;3.63;;;30.60;99.90;;;;;;8362511;28;20029;-88
2023/08/19 08:30:33;;;;;;;6.85;3.58;;;30.60;99.90;;;;;;8359243;28;20529;-86
2023/08/19 08:34:34;;;;;;;5.25;3.25;;;30.80;99.90;;;;;;8370316;28;20024;-86
2023/08/19 08:38:34;;;;;;;7.88;3.38;;;30.70;99.90;;;;;;8370118;28;20558;-86
2023/08/19 08:42:35;;;;;;;6.88;3.60;;;31.00;99.90;;;;;;8384278;28;20040;-89
2023/08/19 08:46:37;;;;;;;8.63;3.97;;;31.20;99.90;;;;;;8362480;28;20382;-90
2023/08/19 08:50:38;;;;;;;6.25;3.92;;;31.40;96.90;;;;;;8366974;28;20039;-86
2023/08/19 08:54:41;;;;;;;6.47;3.72;;;31.30;99.90;;;;;;8368300;28;20040;-86
2023/08/19 08:58:42;;;;;;;7.55;3.60;;;31.60;99.90;;;;;;8382060;28;20025;-87
2023/08/19 09:02:45;;;;;;;6.97;3.88;;;32.10;99.90;;;;;;8362918;28;20035;-85
2023/08/19 09:06:50;;;;;;;6.20;3.42;;;32.10;99.90;;;;;;8388448;28;20608;-86
2023/08/19 09:10:51;;;;;;;8.43;3.70;;;31.70;96.70;;;;;;8384145;28;20501;-86
2023/08/19 09:14:57;;;;;;;4.60;3.10;;;31.70;98.40;;;;;;8360311;28;20211;-86
2023/08/19 09:18:58;;;;;;;13.52;3.70;;;31.80;97.20;;;;;;8361424;28;20036;-86
2023/08/19 09:23:06;;;;;;;9.05;4.22;;;31.80;96.40;;;;;;8384936;28;20485;-86
2023/08/19 09:27:07;;;;;;;7.78;3.95;;;31.80;95.70;;;;;;8357716;28;20025;-87
2023/08/19 09:31:21;;;;;;;9.10;3.80;;;31.60;98.70;;;;;;8383128;28;20036;-86
2023/08/19 09:35:21;;;;;;;5.05;3.55;;;31.70;98.60;;;;;;8353706;28;20496;-86
2023/08/19 09:39:25;;;;;;;5.75;3.33;;;32.30;95.10;;;;;;8362444;28;20047;-86
2023/08/19 09:43:26;;;;;;;7.00;3.70;;;32.10;95.60;;;;;;8360773;28;20025;-86
2023/08/19 09:47:28;;;;;;;7.22;3.70;;;32.60;95.90;;;;;;8369356;28;20067;-86
2023/08/19 09:51:29;;;;;;;5.95;3.70;;;32.30;95.40;;;;;;8362936;28;20041;-86
2023/08/19 09:55:32;;;;;;;7.00;3.70;;;32.60;94.60;;;;;;8361391;28;20044;-86
2023/08/19 09:59:32;;;;;;;9.00;3.42;;;32.70;96.90;;;;;;8356907;28;20099;-85
2023/08/19 10:03:33;;;;;;;7.55;4.40;;;32.80;96.80;;;;;;8358048;28;20366;-85
2023/08/19 10:07:37;;;;;;;5.68;3.72;;;32.80;94.50;;;;;;8366552;28;20025;-85
2023/08/19 10:11:42;;;;;;;14.20;5.38;;;32.60;94.40;;;;;;8363607;28;20066;-79
2023/08/19 10:15:43;;;;;;;5.72;3.58;;;32.50;97.80;;;;;;8378514;28;20025;-79
2023/08/19 10:19:50;;;;;;;7.20;3.90;;;32.60;95.50;;;;;;8357912;28;20094;-79
2023/08/19 10:23:52;;;;;;;8.27;3.97;;;32.50;96.70;;;;;;8350656;28;20035;-80
2023/08/19 10:28:04;;;;;;;9.27;3.83;;;32.90;96.00;;;;;;8377311;28;20023;-79
2023/08/19 10:32:33;;;;;;;6.82;3.35;;;33.40;97.60;;;;;;8354833;22;20049;-78
2023/08/19 10:36:34;;;;;;;7.70;3.80;;;34.10;93.60;;;;;;8348450;28;20030;-79
2023/08/19 10:40:34;;;;;;;10.68;3.78;;;34.90;95.20;;;;;;8268271;28;20026;-79
2023/08/19 10:44:37;;;;;;;6.80;3.33;;;35.80;91.10;;;;;;8316300;28;20026;-78
2023/08/19 10:48:44;;;;;;;5.60;3.67;;;36.00;83.70;;;;;;8317339;28;20054;-78
2023/08/19 10:52:58;;;;;;;5.30;3.20;;;36.10;92.50;;;;;;8251425;28;20030;-78
2023/08/19 10:57:11;;;;;;;8.23;3.60;;;36.50;83.90;;;;;;8316570;28;20033;-79
2023/08/19 11:01:12;;;;;;;9.60;3.80;;;36.50;79.00;;;;;;8237415;28;20095;-79
2023/08/19 11:05:12;;;;;;;6.13;3.00;;;36.70;86.00;;;;;;8245629;28;20019;-79
2023/08/19 11:09:13;;;;;;;7.07;3.58;;;36.90;74.20;;;;;;8306808;28;20184;-79
2023/08/19 11:13:16;;;;;;;7.20;3.38;;;36.80;71.60;;;;;;8260364;28;20020;-78
2023/08/19 11:17:25;;;;;;;5.35;3.13;;;37.00;72.60;;;;;;8310734;28;20030;-78
2023/08/19 11:21:26;;;;;;;8.20;3.33;;;37.10;74.90;;;;;;8319530;28;20041;-79
2023/08/19 11:25:37;;;;;;;6.78;3.10;;;37.50;68.70;;;;;;8249479;28;20334;-80
2023/08/19 11:29:39;;;;;;;7.05;3.20;;;37.60;67.10;;;;;;8317559;28;20039;-78
2023/08/19 11:33:41;;;;;;;6.05;3.05;;;38.10;64.30;;;;;;8255279;28;20564;-80
2023/08/19 11:37:43;;;;;;;4.47;3.20;;;38.70;68.00;;;;;;8317552;28;20612;-79
2023/08/19 11:41:45;;;;;;;3.92;2.97;;;39.40;63.70;;;;;;8300655;28;20130;-79
2023/08/19 11:45:46;;;;;;;10.35;3.33;;;39.50;67.20;;;;;;8254899;28;20516;-80
2023/08/19 11:49:46;;;;;;;7.68;3.40;;;40.20;67.20;;;;;;8257219;28;20029;-80
2023/08/19 11:53:53;;;;;;;6.50;3.35;;;39.70;63.60;;;;;;8258081;28;20041;-80
2023/08/19 11:57:54;;;;;;;4.68;3.20;;;39.20;62.40;;;;;;8312957;28;20030;-80
2023/08/19 12:01:55;;;;;;;6.00;3.20;;;39.70;61.00;;;;;;8254625;28;20026;-78
2023/08/19 12:05:57;;;;;;;6.43;3.42;;;40.70;58.00;;;;;;8251216;28;20105;-79
2023/08/19 12:09:58;;;;;;;8.43;3.28;;;41.20;59.10;;;;;;8325875;28;20041;-80
2023/08/19 12:13:58;;;;;;;6.13;2.80;;;41.80;53.70;;;;;;8303301;28;20042;-79
2023/08/19 12:17:59;;;;;;;6.13;3.53;;;41.30;57.80;;;;;;8260065;28;20027;-80
2023/08/19 12:21:59;;;;;;;8.77;3.50;;;41.30;53.50;;;;;;8314711;28;20026;-80
2023/08/19 12:26:00;;;;;;;7.57;3.35;;;40.40;55.20;;;;;;8324940;28;20050;-80
2023/08/19 12:30:01;;;;;;;7.28;2.85;;;40.90;58.60;;;;;;8301263;28;20031;-80
2023/08/19 12:34:02;;;;;;;6.50;2.97;;;41.60;52.30;;;;;;8324373;28;20067;-80
2023/08/19 12:38:05;;;;;;;6.95;3.10;;;41.30;51.20;;;;;;8316170;28;20493;-80
2023/08/19 12:42:06;;;;;;;6.57;3.15;;;42.50;56.80;;;;;;8311311;28;20023;-79
2023/08/19 12:46:07;;;;;;;6.93;2.90;;;42.70;51.90;;;;;;8252063;28;20023;-80
2023/08/19 12:50:08;;;;;;;8.48;3.05;;;42.30;53.10;;;;;;8252140;28;20050;-80
2023/08/19 12:54:09;;;;;;;7.60;3.00;;;42.20;49.30;;;;;;8316049;28;20136;-80
2023/08/19 12:58:09;;;;;;;9.23;3.17;;;42.90;48.50;;;;;;8321106;28;20100;-79
2023/08/19 13:02:10;;;;;;;6.57;3.05;;;43.60;48.00;;;;;;8314038;28;20022;-80
2023/08/19 13:06:10;;;;;;;7.90;3.03;;;43.50;45.40;;;;;;8317236;28;20057;-79
2023/08/19 13:10:11;;;;;;;6.70;3.15;;;43.80;49.80;;;;;;8230842;28;20023;-80
2023/08/19 13:14:12;;;;;;;8.43;2.88;;;44.40;43.90;;;;;;8307212;28;20023;-80
2023/08/19 13:18:12;;;;;;;5.30;2.70;;;43.80;46.40;;;;;;8314267;28;20026;-79
2023/08/19 13:22:13;;;;;;;8.48;2.67;;;41.40;50.80;;;;;;8306478;28;20109;-80
2023/08/19 13:26:14;;;;;;;5.55;3.00;;;42.60;45.30;;;;;;8303671;28;20023;-79
2023/08/19 13:30:15;;;;;;;6.25;2.70;;;43.80;44.10;;;;;;8313720;28;20034;-80
2023/08/19 13:34:15;;;;;;;6.07;2.90;;;43.00;44.90;;;;;;8314886;28;20026;-80
2023/08/19 13:38:16;;;;;;;6.03;3.20;;;44.00;45.10;;;;;;8249036;28;20046;-80
2023/08/19 13:42:17;;;;;;;7.10;2.83;;;44.80;45.90;;;;;;8302964;28;20490;-81
2023/08/19 13:46:17;;;;;;;6.28;2.80;;;46.10;44.00;;;;;;8235378;28;20030;-80
2023/08/19 13:50:18;;;;;;;5.70;3.00;;;46.50;38.90;;;;;;8235493;28;20056;-81
2023/08/19 13:54:19;;;;;;;6.57;2.83;;;46.20;40.50;;;;;;8298002;28;20042;-80
2023/08/19 13:58:19;;;;;;;5.07;2.88;;;46.00;41.70;;;;;;8306263;28;20043;-80
2023/08/19 14:02:20;;;;;;;5.38;2.90;;;45.60;38.30;;;;;;8246859;28;20050;-80
2023/08/19 14:06:20;;;;;;;6.57;2.65;;;45.50;39.30;;;;;;8244552;28;20029;-80
2023/08/19 14:10:22;;;;;;;5.38;2.90;;;44.70;44.30;;;;;;8250316;28;20029;-79
2023/08/19 14:14:23;;;;;;;7.15;3.10;;;45.70;42.40;;;;;;8236261;28;20026;-80
2023/08/19 14:18:23;;;;;;;7.47;3.00;;;45.90;39.60;;;;;;8303853;28;20073;-81
2023/08/19 14:22:24;;;;;;;7.07;3.15;;;46.20;44.20;;;;;;8308817;28;20043;-80
2023/08/19 14:26:28;;;;;;;7.45;2.75;;;46.10;38.60;;;;;;8248679;28;20030;-81
2023/08/19 14:30:28;;;;;;;6.93;2.60;;;45.50;38.90;;;;;;8247337;28;20032;-81
2023/08/19 14:34:29;;;;;;;6.63;3.25;;;45.90;37.80;;;;;;8249764;28;20486;-81
2023/08/19 14:38:29;;;;;;;6.35;2.95;;;46.10;35.50;;;;;;8313590;28;20077;-81
2023/08/19 14:42:30;;;;;;;6.45;2.85;;;46.00;38.50;;;;;;8302625;28;20026;-80
2023/08/19 14:46:31;;;;;;;7.72;2.90;;;46.50;39.80;;;;;;8237953;28;20056;-80
2023/08/19 14:50:31;;;;;;;5.60;2.60;;;46.60;40.30;;;;;;8242528;28;20121;-81
2023/08/19 14:54:32;;;;;;;5.03;2.83;;;46.10;36.40;;;;;;8303128;28;20532;-81
2023/08/19 14:58:32;;;;;;;6.80;2.95;;;46.40;36.50;;;;;;8247605;28;20041;-80
2023/08/19 15:02:47;;;;;;;5.40;3.05;;;45.70;38.40;;;;;;8241452;28;20102;-80
2023/08/19 15:06:48;;;;;;;7.53;2.55;;;45.50;38.00;;;;;;8280490;28;20069;-80
2023/08/19 15:10:48;;;;;;;5.15;2.85;;;45.80;39.30;;;;;;8318002;28;20031;-81
2023/08/19 15:14:49;;;;;;;4.03;2.85;;;45.70;39.50;;;;;;8311878;28;20031;-81
2023/08/19 15:18:50;;;;;;;5.90;2.90;;;45.50;38.10;;;;;;8317543;28;20087;-80
2023/08/19 15:22:50;;;;;;;9.25;3.10;;;46.30;41.20;;;;;;8242689;28;20042;-79
2023/08/19 15:26:51;;;;;;;6.22;3.20;;;45.50;43.40;;;;;;8307867;28;20046;-79
2023/08/19 15:30:51;;;;;;;8.50;3.30;;;44.80;43.50;;;;;;8242406;28;20080;-79
2023/08/19 15:34:52;;;;;;;12.13;3.38;;;43.30;42.80;;;;;;8255475;28;20494;-80
2023/08/19 15:38:52;;;;;;;5.10;2.72;;;43.40;42.90;;;;;;8245327;28;20030;-78
2023/08/19 15:42:53;;;;;;;7.13;3.25;;;43.90;42.00;;;;;;8235661;28;20076;-79
2023/08/19 15:46:53;;;;;;;4.97;2.95;;;43.20;45.40;;;;;;8301565;28;20015;-79
2023/08/19 15:50:55;;;;;;;8.25;3.20;;;41.80;46.60;;;;;;8234032;28;20030;-79
2023/08/19 15:54:55;;;;;;;10.55;4.47;;;39.00;47.80;;;;;;8298656;28;20030;-79
2023/08/19 15:58:56;;;;;;;8.70;3.45;;;36.30;54.30;;;;;;8238299;28;20529;-79
2023/08/19 16:02:56;;;;;;;6.05;3.45;;;34.60;60.40;;;;;;8236500;28;20099;-77
2023/08/19 16:06:57;;;;;;;6.15;3.70;;;33.30;66.40;;;;;;8247960;28;20033;-79
2023/08/19 16:11:08;;;;;;;4.72;3.08;;;32.30;69.00;;;;;;8241401;28;20062;-79
2023/08/19 16:15:09;;;;;;;3.97;3.28;;;31.80;67.60;;;;;;8241119;28;20069;-78
2023/08/19 16:19:09;;;;;;;10.30;4.03;;;31.40;72.60;;;;;;8233112;28;20030;-79
2023/08/19 16:23:10;;;;;;;6.57;3.75;;;31.00;78.80;;;;;;8308720;28;20023;-79
2023/08/19 16:27:11;;;;;;;8.23;3.72;;;30.70;83.60;;;;;;8308664;28;20026;-78
2023/08/19 16:35:14;;;;;;;6.90;3.67;;;29.50;89.60;;;;;;8395992;28;20064;-79
2023/08/19 16:39:15;;;;;;;8.13;4.82;;;29.10;92.50;;;;;;8381403;28;20103;-79
2023/08/19 16:43:15;;;;;;;8.75;4.63;;;28.90;96.10;;;;;;8346073;28;20108;-79
2023/08/19 16:47:16;;;;;;;7.70;3.95;;;29.10;97.80;;;;;;8376125;28;20020;-79
2023/08/19 16:51:16;;;;;;;7.85;4.10;;;29.10;99.40;;;;;;8368613;28;20029;-80
2023/08/19 16:55:17;;;;;;;9.40;5.07;;;29.10;98.80;;;;;;8348627;28;20021;-79
2023/08/19 16:59:17;;;;;;;6.65;4.25;;;28.90;99.90;;;;;;8374459;28;20032;-78
2023/08/19 17:03:18;;;;;;;8.23;4.63;;;28.60;99.90;;;;;;8361559;28;20056;-79
2023/08/19 17:07:22;;;;;;;7.88;4.40;;;28.30;99.90;;;;;;8381994;28;20484;-78
2023/08/19 17:11:23;;;;;;;9.85;5.60;;;28.00;99.90;;;;;;8364297;28;20037;-79
2023/08/19 17:15:23;;;;;;;12.38;6.32;;;28.00;99.90;;;;;;8365301;28;20037;-77
2023/08/19 17:19:24;;;;;;;10.63;5.03;;;27.80;99.90;;;;;;8365364;28;20033;-80
2023/08/19 17:23:26;;;;;;;11.30;5.10;;;27.80;99.90;;;;;;8348347;28;20399;-80
2023/08/19 17:27:26;;;;;;;9.57;4.70;;;27.70;99.90;;;;;;8361018;28;20665;-84
2023/08/19 17:31:27;;;;;;;15.25;5.55;;;27.70;99.90;;;;;;8370392;28;20028;-83
2023/08/19 17:35:27;;;;;;;10.73;5.75;;;27.50;99.90;;;;;;8366291;28;20032;-83
2023/08/19 17:39:28;;;;;;;8.50;4.55;;;27.10;99.90;;;;;;8365688;28;20028;-83
2023/08/19 17:43:30;;;;;;;9.30;4.88;;;26.70;99.90;;;;;;8364963;28;20036;-82
2023/08/19 17:47:31;;;;;;;5.72;4.72;;;26.50;99.90;;;;;;8361155;28;20075;-84
2023/08/19 17:51:31;;;;;;;7.75;4.80;;;26.20;99.90;;;;;;8365539;28;20517;-80
2023/08/19 17:55:32;;;;;;;8.07;4.45;;;26.20;99.90;;;;;;8354908;28;20044;-82
2023/08/19 17:59:32;;;;;;;12.18;4.50;;;26.00;99.90;;;;;;8353183;28;20100;-82
2023/08/19 18:03:33;;;;;;;10.88;4.80;;;26.00;99.90;;;;;;8357236;28;20067;-83
2023/08/19 18:07:34;;;;;;;8.15;5.05;;;26.20;99.90;;;;;;8364431;28;20104;-82
2023/08/19 18:11:34;;;;;;;8.00;4.63;;;25.90;99.90;;;;;;8376791;28;20033;-81
2023/08/19 18:15:35;;;;;;;15.40;4.55;;;25.60;99.90;;;;;;8373167;28;20408;-81
2023/08/19 18:19:36;;;;;;;7.57;3.95;;;25.70;99.90;;;;;;8351929;28;20481;-83
2023/08/19 18:23:37;;;;;;;9.75;4.93;;;25.80;99.90;;;;;;8354259;28;20107;-82
2023/08/19 18:27:39;;;;;;;9.27;4.20;;;25.60;99.90;;;;;;8353586;28;20043;-82
2023/08/19 18:31:39;;;;;;;7.68;4.03;;;25.50;99.90;;;;;;8359294;28;20056;-82
2023/08/19 18:35:40;;;;;;;7.43;4.35;;;25.70;99.90;;;;;;8368903;28;20037;-82
2023/08/19 18:39:40;;;;;;;8.85;4.10;;;25.90;99.90;;;;;;8370322;28;20028;-81
2023/08/19 18:43:41;;;;;;;7.95;4.60;;;25.90;99.90;;;;;;8366142;28;20074;-80
2023/08/19 18:48:02;;;;;;;11.20;4.53;;;25.90;99.90;;;;;;8373855;28;20024;-81
2023/08/19 18:52:03;;;;;;;9.40;4.68;;;25.80;99.90;;;;;;8387178;28;20631;-82
2023/08/19 18:56:04;;;;;;;7.30;4.78;;;25.70;99.90;;;;;;8372558;28;20045;-81
2023/08/19 19:00:05;;;;;;;6.50;4.93;;;25.50;99.90;;;;;;8370729;28;20029;-82
2023/08/19 19:04:08;;;;;;;11.13;5.07;;;25.50;99.90;;;;;;8365850;28;20408;-82
2023/08/19 19:08:10;;;;;;;8.50;4.88;;;25.30;99.90;;;;;;8356815;28;20028;-82
2023/08/19 19:12:11;;;;;;;7.50;5.30;;;25.10;99.90;;;;;;8370888;28;20120;-81
2023/08/19 19:16:11;;;;;;;13.70;5.30;;;24.90;99.90;;;;;;8360807;28;20031;-81
2023/08/19 19:20:12;;;;;;;15.82;5.63;;;24.50;99.90;;;;;;8390959;28;20052;-81
2023/08/19 19:24:12;;;;;;;7.93;5.20;;;24.20;99.90;;;;;;8356313;28;20063;-82
2023/08/19 19:28:13;;;;;;;8.23;5.05;;;24.00;99.90;;;;;;8364373;28;20443;-81
2023/08/19 19:32:13;;;;;;;9.50;5.30;;;24.00;99.90;;;;;;8366831;28;20112;-81
2023/08/19 19:36:14;;;;;;;8.15;5.55;;;23.80;99.90;;;;;;8360737;28;20024;-82
2023/08/19 19:40:16;;;;;;;9.02;5.30;;;23.60;99.90;;;;;;8377990;28;20090;-81
2023/08/19 19:44:17;;;;;;;11.27;6.05;;;23.40;99.90;;;;;;8364048;28;20019;-81
2023/08/19 19:48:17;;;;;;;9.60;5.88;;;23.20;99.90;;;;;;8360499;28;20021;-81
2023/08/19 19:52:18;;;;;;;10.38;5.50;;;22.90;99.90;;;;;;8375069;28;20017;-80
2023/08/19 19:56:18;;;;;;;13.75;5.85;;;22.50;99.90;;;;;;8361890;28;20501;-81
2023/08/19 20:00:19;;;;;;;9.55;6.38;;;22.40;99.90;;;;;;8360937;28;20480;-81
2023/08/19 20:04:20;;;;;;;9.73;6.18;;;22.40;99.90;;;;;;8355641;28;20489;-81
2023/08/19 20:08:22;;;;;;;12.20;7.70;;;22.40;99.90;;;;;;8361247;28;20028;-81
2023/08/19 20:12:23;;;;;;;12.25;8.10;;;22.90;99.90;;;;;;8370783;28;20019;-81
2023/08/19 20:16:24;;;;;;;10.98;7.03;;;22.90;99.90;;;;;;8360518;28;20025;-83
2023/08/19 20:20:25;;;;;;;9.50;7.22;;;22.60;99.90;;;;;;8355764;28;20060;-81
2023/08/19 20:24:26;;;;;;;11.48;7.15;;;22.50;99.90;;;;;;8366561;28;20040;-82
2023/08/19 20:28:27;;;;;;;12.32;7.80;;;22.30;99.90;;;;;;8381473;28;20020;-81
2023/08/19 20:32:27;;;;;;;9.70;7.63;;;22.10;99.90;;;;;;8382874;28;20489;-83
2023/08/19 20:36:31;;;;;;;8.90;7.32;;;22.00;99.90;;;;;;8368678;28;20037;-83
2023/08/19 20:40:32;;;;;;;9.05;7.80;;;21.90;99.90;;;;;;8385527;28;20051;-82
2023/08/19 20:44:33;;;;;;;12.57;7.60;;;21.80;99.90;;;;;;8368958;28;20025;-82
2023/08/19 20:48:34;;;;;;;9.82;7.88;;;21.70;99.90;;;;;;8373017;28;20108;-83
2023/08/19 20:52:34;;;;;;;9.18;7.10;;;21.70;99.90;;;;;;8363466;28;20048;-82
2023/08/19 20:56:35;;;;;;;11.50;7.75;;;21.40;99.90;;;;;;8366270;28;20021;-83